sensor_id;sensor_type;location;lat;lon;timestamp;P1;durP1;ratioP1;P2;durP2;ratioP2
17566;SDS011;8901;52.088;5.084;2023-06-22T00:00:37;6.45;;;5.65;;
17566;SDS011;8901;52.088;5.084;2023-06-22T00:03:04;9.48;;;6.25;;
17566;SDS011;8901;52.088;5.084;2023-06-22T00:05:31;7.47;;;6.32;;
17566;SDS011;8901;52.088;5.084;2023-06-22T00:08:01;7.38;;;6.20;;
17566;SDS011;8901;52.088;5.084;2023-06-22T00:10:30;7.72;;;5.88;;
17566;SDS011;8901;52.088;5.084;2023-06-22T00:12:57;6.50;;;5.88;;
17566;SDS011;8901;52.088;5.084;2023-06-22T00:15:24;8.57;;;6.00;;
17566;SDS011;8901;52.088;5.084;2023-06-22T00:17:52;8.88;;;6.03;;
17566;SDS011;8901;52.088;5.084;2023-06-22T00:20:19;7.70;;;6.20;;
17566;SDS011;8901;52.088;5.084;2023-06-22T00:22:47;8.00;;;6.80;;
17566;SDS011;8901;52.088;5.084;2023-06-22T00:25:14;8.38;;;6.78;;
17566;SDS011;8901;52.088;5.084;2023-06-22T00:27:43;9.18;;;7.07;;
17566;SDS011;8901;52.088;5.084;2023-06-22T00:30:10;7.60;;;6.32;;
17566;SDS011;8901;52.088;5.084;2023-06-22T00:32:38;9.45;;;6.40;;
17566;SDS011;8901;52.088;5.084;2023-06-22T00:35:05;8.82;;;6.18;;
17566;SDS011;8901;52.088;5.084;2023-06-22T00:37:32;9.18;;;6.00;;
17566;SDS011;8901;52.088;5.084;2023-06-22T00:40:00;8.43;;;6.75;;
17566;SDS011;8901;52.088;5.084;2023-06-22T00:42:29;8.98;;;7.10;;
17566;SDS011;8901;52.088;5.084;2023-06-22T00:44:58;7.20;;;6.38;;
17566;SDS011;8901;52.088;5.084;2023-06-22T00:47:25;9.90;;;7.10;;
17566;SDS011;8901;52.088;5.084;2023-06-22T00:49:53;8.00;;;6.57;;
17566;SDS011;8901;52.088;5.084;2023-06-22T00:52:20;8.52;;;6.72;;
17566;SDS011;8901;52.088;5.084;2023-06-22T00:54:52;10.25;;;7.78;;
17566;SDS011;8901;52.088;5.084;2023-06-22T00:57:19;11.02;;;7.63;;
17566;SDS011;8901;52.088;5.084;2023-06-22T00:59:47;9.55;;;7.07;;
17566;SDS011;8901;52.088;5.084;2023-06-22T01:02:16;11.35;;;7.55;;
17566;SDS011;8901;52.088;5.084;2023-06-22T01:04:43;8.68;;;7.18;;
17566;SDS011;8901;52.088;5.084;2023-06-22T01:07:17;8.57;;;7.05;;
17566;SDS011;8901;52.088;5.084;2023-06-22T01:09:49;10.07;;;7.20;;
17566;SDS011;8901;52.088;5.084;2023-06-22T01:12:18;11.32;;;7.68;;
17566;SDS011;8901;52.088;5.084;2023-06-22T01:14:47;10.35;;;7.65;;
17566;SDS011;8901;52.088;5.084;2023-06-22T01:17:18;10.13;;;7.50;;
17566;SDS011;8901;52.088;5.084;2023-06-22T01:19:47;10.57;;;7.25;;
17566;SDS011;8901;52.088;5.084;2023-06-22T01:22:21;10.52;;;7.65;;
17566;SDS011;8901;52.088;5.084;2023-06-22T01:24:51;9.68;;;7.47;;
17566;SDS011;8901;52.088;5.084;2023-06-22T01:27:26;10.95;;;7.93;;
17566;SDS011;8901;52.088;5.084;2023-06-22T01:29:57;12.23;;;8.20;;
17566;SDS011;8901;52.088;5.084;2023-06-22T01:32:27;11.05;;;8.45;;
17566;SDS011;8901;52.088;5.084;2023-06-22T01:34:55;11.68;;;8.80;;
17566;SDS011;8901;52.088;5.084;2023-06-22T01:37:23;10.63;;;8.32;;
17566;SDS011;8901;52.088;5.084;2023-06-22T01:39:50;14.27;;;10.18;;
17566;SDS011;8901;52.088;5.084;2023-06-22T01:42:18;12.80;;;9.52;;
17566;SDS011;8901;52.088;5.084;2023-06-22T01:44:45;11.43;;;9.77;;
17566;SDS011;8901;52.088;5.084;2023-06-22T01:47:14;11.75;;;8.80;;
17566;SDS011;8901;52.088;5.084;2023-06-22T01:49:41;12.65;;;9.88;;
17566;SDS011;8901;52.088;5.084;2023-06-22T01:52:09;12.65;;;9.85;;
17566;SDS011;8901;52.088;5.084;2023-06-22T01:54:37;11.55;;;9.98;;
17566;SDS011;8901;52.088;5.084;2023-06-22T01:57:05;10.75;;;9.25;;
17566;SDS011;8901;52.088;5.084;2023-06-22T01:59:33;12.00;;;10.23;;
17566;SDS011;8901;52.088;5.084;2023-06-22T02:02:02;12.35;;;9.57;;
17566;SDS011;8901;52.088;5.084;2023-06-22T02:04:33;15.75;;;11.00;;
17566;SDS011;8901;52.088;5.084;2023-06-22T02:07:01;12.40;;;9.57;;
17566;SDS011;8901;52.088;5.084;2023-06-22T02:09:32;12.00;;;10.00;;
17566;SDS011;8901;52.088;5.084;2023-06-22T02:12:02;12.90;;;9.40;;
17566;SDS011;8901;52.088;5.084;2023-06-22T02:14:30;12.30;;;9.47;;
17566;SDS011;8901;52.088;5.084;2023-06-22T02:16:57;13.63;;;9.77;;
17566;SDS011;8901;52.088;5.084;2023-06-22T02:19:25;10.70;;;9.30;;
17566;SDS011;8901;52.088;5.084;2023-06-22T02:21:59;11.40;;;9.90;;
17566;SDS011;8901;52.088;5.084;2023-06-22T02:24:26;13.50;;;9.88;;
17566;SDS011;8901;52.088;5.084;2023-06-22T02:26:56;11.93;;;9.25;;
17566;SDS011;8901;52.088;5.084;2023-06-22T02:29:24;13.75;;;10.43;;
17566;SDS011;8901;52.088;5.084;2023-06-22T02:31:52;13.50;;;10.43;;
17566;SDS011;8901;52.088;5.084;2023-06-22T02:34:19;13.20;;;11.13;;
17566;SDS011;8901;52.088;5.084;2023-06-22T02:36:46;11.93;;;10.00;;
17566;SDS011;8901;52.088;5.084;2023-06-22T02:39:18;12.50;;;10.03;;
17566;SDS011;8901;52.088;5.084;2023-06-22T02:41:47;11.68;;;9.80;;
17566;SDS011;8901;52.088;5.084;2023-06-22T02:44:14;13.95;;;9.90;;
17566;SDS011;8901;52.088;5.084;2023-06-22T02:46:41;13.65;;;10.00;;
17566;SDS011;8901;52.088;5.084;2023-06-22T02:49:09;11.60;;;9.38;;
17566;SDS011;8901;52.088;5.084;2023-06-22T02:51:37;12.63;;;10.07;;
17566;SDS011;8901;52.088;5.084;2023-06-22T02:54:05;12.40;;;10.40;;
17566;SDS011;8901;52.088;5.084;2023-06-22T02:56:34;11.60;;;10.07;;
17566;SDS011;8901;52.088;5.084;2023-06-22T02:59:01;11.67;;;9.63;;
17566;SDS011;8901;52.088;5.084;2023-06-22T03:01:29;10.83;;;9.37;;
17566;SDS011;8901;52.088;5.084;2023-06-22T03:04:02;10.47;;;9.37;;
17566;SDS011;8901;52.088;5.084;2023-06-22T03:06:30;11.77;;;9.50;;
17566;SDS011;8901;52.088;5.084;2023-06-22T03:08:58;12.43;;;9.83;;
17566;SDS011;8901;52.088;5.084;2023-06-22T03:11:25;14.27;;;10.03;;
17566;SDS011;8901;52.088;5.084;2023-06-22T03:13:54;14.63;;;10.83;;
17566;SDS011;8901;52.088;5.084;2023-06-22T03:16:21;14.27;;;9.63;;
17566;SDS011;8901;52.088;5.084;2023-06-22T03:18:48;12.73;;;9.90;;
17566;SDS011;8901;52.088;5.084;2023-06-22T03:21:16;10.60;;;9.17;;
17566;SDS011;8901;52.088;5.084;2023-06-22T03:23:43;11.87;;;9.40;;
17566;SDS011;8901;52.088;5.084;2023-06-22T03:26:10;10.90;;;9.23;;
17566;SDS011;8901;52.088;5.084;2023-06-22T03:28:38;11.67;;;9.33;;
17566;SDS011;8901;52.088;5.084;2023-06-22T03:31:09;11.37;;;9.23;;
17566;SDS011;8901;52.088;5.084;2023-06-22T03:33:36;11.13;;;9.83;;
17566;SDS011;8901;52.088;5.084;2023-06-22T03:36:03;11.47;;;9.33;;
17566;SDS011;8901;52.088;5.084;2023-06-22T03:38:31;11.33;;;9.90;;
17566;SDS011;8901;52.088;5.084;2023-06-22T03:40:58;11.93;;;9.87;;
17566;SDS011;8901;52.088;5.084;2023-06-22T03:43:25;11.77;;;9.53;;
17566;SDS011;8901;52.088;5.084;2023-06-22T03:45:52;13.43;;;10.43;;
17566;SDS011;8901;52.088;5.084;2023-06-22T03:48:21;13.10;;;10.30;;
17566;SDS011;8901;52.088;5.084;2023-06-22T03:50:48;13.27;;;11.37;;
17566;SDS011;8901;52.088;5.084;2023-06-22T03:53:16;13.63;;;11.27;;
17566;SDS011;8901;52.088;5.084;2023-06-22T03:55:47;14.00;;;10.50;;
17566;SDS011;8901;52.088;5.084;2023-06-22T03:58:15;13.67;;;10.90;;
17566;SDS011;8901;52.088;5.084;2023-06-22T04:00:44;13.03;;;11.27;;
17566;SDS011;8901;52.088;5.084;2023-06-22T04:03:11;12.57;;;10.87;;
17566;SDS011;8901;52.088;5.084;2023-06-22T04:05:40;12.57;;;10.17;;
17566;SDS011;8901;52.088;5.084;2023-06-22T04:08:07;13.33;;;11.07;;
17566;SDS011;8901;52.088;5.084;2023-06-22T04:10:34;12.37;;;10.20;;
17566;SDS011;8901;52.088;5.084;2023-06-22T04:13:02;12.55;;;9.48;;
17566;SDS011;8901;52.088;5.084;2023-06-22T04:15:29;11.27;;;9.70;;
17566;SDS011;8901;52.088;5.084;2023-06-22T04:17:56;12.70;;;10.07;;
17566;SDS011;8901;52.088;5.084;2023-06-22T04:20:23;13.03;;;10.63;;
17566;SDS011;8901;52.088;5.084;2023-06-22T04:22:53;12.67;;;9.70;;
17566;SDS011;8901;52.088;5.084;2023-06-22T04:25:21;12.27;;;9.77;;
17566;SDS011;8901;52.088;5.084;2023-06-22T04:27:49;12.73;;;9.77;;
17566;SDS011;8901;52.088;5.084;2023-06-22T04:30:16;11.63;;;9.67;;
17566;SDS011;8901;52.088;5.084;2023-06-22T04:32:43;11.20;;;9.05;;
17566;SDS011;8901;52.088;5.084;2023-06-22T04:35:21;12.10;;;9.20;;
17566;SDS011;8901;52.088;5.084;2023-06-22T04:37:48;10.80;;;9.27;;
17566;SDS011;8901;52.088;5.084;2023-06-22T04:40:21;11.83;;;10.63;;
17566;SDS011;8901;52.088;5.084;2023-06-22T04:42:48;12.93;;;10.60;;
17566;SDS011;8901;52.088;5.084;2023-06-22T04:45:19;13.30;;;10.03;;
17566;SDS011;8901;52.088;5.084;2023-06-22T04:47:46;14.53;;;10.00;;
17566;SDS011;8901;52.088;5.084;2023-06-22T04:50:13;12.13;;;10.47;;
17566;SDS011;8901;52.088;5.084;2023-06-22T04:52:42;13.27;;;10.70;;
17566;SDS011;8901;52.088;5.084;2023-06-22T04:55:10;13.00;;;10.20;;
17566;SDS011;8901;52.088;5.084;2023-06-22T04:57:39;13.30;;;10.13;;
17566;SDS011;8901;52.088;5.084;2023-06-22T05:00:06;11.17;;;10.00;;
17566;SDS011;8901;52.088;5.084;2023-06-22T05:02:42;11.87;;;10.73;;
17566;SDS011;8901;52.088;5.084;2023-06-22T05:05:10;12.67;;;11.33;;
17566;SDS011;8901;52.088;5.084;2023-06-22T05:07:39;12.53;;;11.23;;
17566;SDS011;8901;52.088;5.084;2023-06-22T05:10:08;15.10;;;10.17;;
17566;SDS011;8901;52.088;5.084;2023-06-22T05:12:36;13.50;;;10.10;;
17566;SDS011;8901;52.088;5.084;2023-06-22T05:15:05;13.47;;;10.63;;
17566;SDS011;8901;52.088;5.084;2023-06-22T05:17:33;15.20;;;11.47;;
17566;SDS011;8901;52.088;5.084;2023-06-22T05:20:00;13.23;;;11.40;;
17566;SDS011;8901;52.088;5.084;2023-06-22T05:22:28;12.67;;;10.70;;
17566;SDS011;8901;52.088;5.084;2023-06-22T05:24:55;12.80;;;11.45;;
17566;SDS011;8901;52.088;5.084;2023-06-22T05:27:23;12.87;;;10.97;;
17566;SDS011;8901;52.088;5.084;2023-06-22T05:29:50;17.93;;;12.17;;
17566;SDS011;8901;52.088;5.084;2023-06-22T05:32:18;14.30;;;11.60;;
17566;SDS011;8901;52.088;5.084;2023-06-22T05:34:46;14.40;;;11.47;;
17566;SDS011;8901;52.088;5.084;2023-06-22T05:37:15;13.47;;;11.77;;
17566;SDS011;8901;52.088;5.084;2023-06-22T05:39:42;16.48;;;11.93;;
17566;SDS011;8901;52.088;5.084;2023-06-22T05:42:10;14.00;;;11.68;;
17566;SDS011;8901;52.088;5.084;2023-06-22T05:44:37;13.33;;;11.93;;
17566;SDS011;8901;52.088;5.084;2023-06-22T05:47:05;15.23;;;12.38;;
17566;SDS011;8901;52.088;5.084;2023-06-22T05:49:36;18.10;;;12.83;;
17566;SDS011;8901;52.088;5.084;2023-06-22T05:52:06;17.30;;;13.93;;
17566;SDS011;8901;52.088;5.084;2023-06-22T05:54:33;15.67;;;12.80;;
17566;SDS011;8901;52.088;5.084;2023-06-22T05:57:00;15.55;;;12.75;;
17566;SDS011;8901;52.088;5.084;2023-06-22T05:59:28;18.00;;;13.63;;
17566;SDS011;8901;52.088;5.084;2023-06-22T06:01:56;18.27;;;13.55;;
17566;SDS011;8901;52.088;5.084;2023-06-22T06:04:23;16.53;;;14.27;;
17566;SDS011;8901;52.088;5.084;2023-06-22T06:06:52;17.52;;;13.93;;
17566;SDS011;8901;52.088;5.084;2023-06-22T06:09:19;17.08;;;14.27;;
17566;SDS011;8901;52.088;5.084;2023-06-22T06:11:46;16.77;;;14.97;;
17566;SDS011;8901;52.088;5.084;2023-06-22T06:14:14;17.88;;;14.98;;
17566;SDS011;8901;52.088;5.084;2023-06-22T06:16:42;19.25;;;16.13;;
17566;SDS011;8901;52.088;5.084;2023-06-22T06:19:09;23.57;;;15.90;;
17566;SDS011;8901;52.088;5.084;2023-06-22T06:21:36;19.27;;;15.80;;
17566;SDS011;8901;52.088;5.084;2023-06-22T06:24:05;16.90;;;13.73;;
17566;SDS011;8901;52.088;5.084;2023-06-22T06:26:33;20.50;;;16.50;;
17566;SDS011;8901;52.088;5.084;2023-06-22T06:29:00;17.98;;;15.15;;
17566;SDS011;8901;52.088;5.084;2023-06-22T06:31:28;20.95;;;16.88;;
17566;SDS011;8901;52.088;5.084;2023-06-22T06:33:55;20.58;;;14.38;;
17566;SDS011;8901;52.088;5.084;2023-06-22T06:36:23;18.88;;;16.00;;
17566;SDS011;8901;52.088;5.084;2023-06-22T06:38:50;19.30;;;17.23;;
17566;SDS011;8901;52.088;5.084;2023-06-22T06:41:19;20.92;;;17.35;;
17566;SDS011;8901;52.088;5.084;2023-06-22T06:43:46;20.92;;;17.13;;
17566;SDS011;8901;52.088;5.084;2023-06-22T06:46:13;20.83;;;17.02;;
17566;SDS011;8901;52.088;5.084;2023-06-22T06:48:40;20.20;;;17.20;;
17566;SDS011;8901;52.088;5.084;2023-06-22T06:51:08;20.48;;;16.95;;
17566;SDS011;8901;52.088;5.084;2023-06-22T06:53:35;20.95;;;17.85;;
17566;SDS011;8901;52.088;5.084;2023-06-22T06:56:02;19.25;;;16.65;;
17566;SDS011;8901;52.088;5.084;2023-06-22T06:58:32;22.15;;;16.48;;
17566;SDS011;8901;52.088;5.084;2023-06-22T07:00:59;19.77;;;17.30;;
17566;SDS011;8901;52.088;5.084;2023-06-22T07:03:27;19.40;;;16.45;;
17566;SDS011;8901;52.088;5.084;2023-06-22T07:05:54;18.52;;;13.57;;
17566;SDS011;8901;52.088;5.084;2023-06-22T07:08:22;17.17;;;14.25;;
17566;SDS011;8901;52.088;5.084;2023-06-22T07:10:49;16.75;;;14.90;;
17566;SDS011;8901;52.088;5.084;2023-06-22T07:13:16;21.00;;;17.05;;
17566;SDS011;8901;52.088;5.084;2023-06-22T07:15:45;18.98;;;16.70;;
17566;SDS011;8901;52.088;5.084;2023-06-22T07:18:12;18.13;;;16.23;;
17566;SDS011;8901;52.088;5.084;2023-06-22T07:20:39;19.83;;;16.77;;
17566;SDS011;8901;52.088;5.084;2023-06-22T07:23:07;19.50;;;17.40;;
17566;SDS011;8901;52.088;5.084;2023-06-22T07:25:34;21.58;;;17.80;;
17566;SDS011;8901;52.088;5.084;2023-06-22T07:28:02;19.67;;;17.60;;
17566;SDS011;8901;52.088;5.084;2023-06-22T07:30:30;21.85;;;18.80;;
17566;SDS011;8901;52.088;5.084;2023-06-22T07:32:59;18.55;;;15.80;;
17566;SDS011;8901;52.088;5.084;2023-06-22T07:35:29;18.50;;;14.85;;
17566;SDS011;8901;52.088;5.084;2023-06-22T07:37:56;19.67;;;15.50;;
17566;SDS011;8901;52.088;5.084;2023-06-22T07:40:23;14.30;;;12.02;;
17566;SDS011;8901;52.088;5.084;2023-06-22T07:42:50;18.65;;;14.07;;
17566;SDS011;8901;52.088;5.084;2023-06-22T07:45:18;17.50;;;14.52;;
17566;SDS011;8901;52.088;5.084;2023-06-22T07:47:46;14.40;;;12.90;;
17566;SDS011;8901;52.088;5.084;2023-06-22T07:50:14;18.30;;;12.52;;
17566;SDS011;8901;52.088;5.084;2023-06-22T07:52:42;14.93;;;12.25;;
17566;SDS011;8901;52.088;5.084;2023-06-22T07:55:09;15.25;;;11.93;;
17566;SDS011;8901;52.088;5.084;2023-06-22T07:57:36;18.65;;;13.18;;
17566;SDS011;8901;52.088;5.084;2023-06-22T08:00:04;12.93;;;10.10;;
17566;SDS011;8901;52.088;5.084;2023-06-22T08:02:37;14.80;;;10.80;;
17566;SDS011;8901;52.088;5.084;2023-06-22T08:05:05;12.90;;;10.45;;
17566;SDS011;8901;52.088;5.084;2023-06-22T08:07:34;13.18;;;11.57;;
17566;SDS011;8901;52.088;5.084;2023-06-22T08:10:03;11.75;;;10.38;;
17566;SDS011;8901;52.088;5.084;2023-06-22T08:12:31;15.05;;;12.15;;
17566;SDS011;8901;52.088;5.084;2023-06-22T08:14:58;14.75;;;11.98;;
17566;SDS011;8901;52.088;5.084;2023-06-22T08:17:25;13.50;;;11.48;;
17566;SDS011;8901;52.088;5.084;2023-06-22T08:19:53;12.57;;;10.75;;
17566;SDS011;8901;52.088;5.084;2023-06-22T08:22:20;12.50;;;11.02;;
17566;SDS011;8901;52.088;5.084;2023-06-22T08:24:49;12.43;;;10.52;;
17566;SDS011;8901;52.088;5.084;2023-06-22T08:27:16;14.25;;;10.68;;
17566;SDS011;8901;52.088;5.084;2023-06-22T08:29:46;12.68;;;9.70;;
17566;SDS011;8901;52.088;5.084;2023-06-22T08:32:14;14.13;;;9.95;;
17566;SDS011;8901;52.088;5.084;2023-06-22T08:34:42;10.13;;;7.32;;
17566;SDS011;8901;52.088;5.084;2023-06-22T08:37:09;10.80;;;9.68;;
17566;SDS011;8901;52.088;5.084;2023-06-22T08:39:36;9.98;;;8.43;;
17566;SDS011;8901;52.088;5.084;2023-06-22T08:42:06;11.95;;;9.45;;
17566;SDS011;8901;52.088;5.084;2023-06-22T08:44:33;13.15;;;11.60;;
17566;SDS011;8901;52.088;5.084;2023-06-22T08:47:06;13.82;;;12.20;;
17566;SDS011;8901;52.088;5.084;2023-06-22T08:50:06;12.43;;;9.75;;
17566;SDS011;8901;52.088;5.084;2023-06-22T08:52:43;15.68;;;11.50;;
17566;SDS011;8901;52.088;5.084;2023-06-22T08:55:23;14.02;;;11.40;;
17566;SDS011;8901;52.088;5.084;2023-06-22T08:58:16;14.20;;;12.70;;
17566;SDS011;8901;52.088;5.084;2023-06-22T09:00:49;15.63;;;12.95;;
17566;SDS011;8901;52.088;5.084;2023-06-22T09:03:17;13.88;;;12.32;;
17566;SDS011;8901;52.088;5.084;2023-06-22T09:05:45;14.18;;;10.90;;
17566;SDS011;8901;52.088;5.084;2023-06-22T09:08:13;12.13;;;10.93;;
17566;SDS011;8901;52.088;5.084;2023-06-22T09:10:40;12.95;;;11.60;;
17566;SDS011;8901;52.088;5.084;2023-06-22T09:13:07;12.55;;;11.23;;
17566;SDS011;8901;52.088;5.084;2023-06-22T09:15:36;12.88;;;10.70;;
17566;SDS011;8901;52.088;5.084;2023-06-22T09:18:03;9.52;;;8.60;;
17566;SDS011;8901;52.088;5.084;2023-06-22T09:20:30;11.48;;;10.05;;
17566;SDS011;8901;52.088;5.084;2023-06-22T09:22:58;13.05;;;10.15;;
17566;SDS011;8901;52.088;5.084;2023-06-22T09:25:25;9.60;;;8.70;;
17566;SDS011;8901;52.088;5.084;2023-06-22T09:27:53;10.10;;;8.80;;
17566;SDS011;8901;52.088;5.084;2023-06-22T09:30:20;8.52;;;7.72;;
17566;SDS011;8901;52.088;5.084;2023-06-22T09:32:49;10.70;;;9.65;;
17566;SDS011;8901;52.088;5.084;2023-06-22T09:35:17;10.73;;;9.65;;
17566;SDS011;8901;52.088;5.084;2023-06-22T09:37:45;10.43;;;9.43;;
17566;SDS011;8901;52.088;5.084;2023-06-22T09:40:15;11.70;;;10.50;;
17566;SDS011;8901;52.088;5.084;2023-06-22T09:42:48;12.95;;;11.65;;
17566;SDS011;8901;52.088;5.084;2023-06-22T09:45:31;11.40;;;10.30;;
17566;SDS011;8901;52.088;5.084;2023-06-22T09:48:00;11.77;;;9.93;;
17566;SDS011;8901;52.088;5.084;2023-06-22T09:50:28;12.82;;;11.48;;
17566;SDS011;8901;52.088;5.084;2023-06-22T09:52:55;13.45;;;11.75;;
17566;SDS011;8901;52.088;5.084;2023-06-22T09:55:23;12.05;;;10.23;;
17566;SDS011;8901;52.088;5.084;2023-06-22T09:57:50;12.57;;;11.27;;
17566;SDS011;8901;52.088;5.084;2023-06-22T10:00:17;8.93;;;8.07;;
17566;SDS011;8901;52.088;5.084;2023-06-22T10:02:45;9.82;;;8.93;;
17566;SDS011;8901;52.088;5.084;2023-06-22T10:05:13;11.75;;;10.65;;
17566;SDS011;8901;52.088;5.084;2023-06-22T10:07:42;12.05;;;10.70;;
17566;SDS011;8901;52.088;5.084;2023-06-22T10:10:09;11.93;;;10.60;;
17566;SDS011;8901;52.088;5.084;2023-06-22T10:12:40;16.38;;;11.88;;
17566;SDS011;8901;52.088;5.084;2023-06-22T10:15:08;11.65;;;10.55;;
17566;SDS011;8901;52.088;5.084;2023-06-22T10:17:36;12.85;;;11.52;;
17566;SDS011;8901;52.088;5.084;2023-06-22T10:20:06;12.57;;;11.38;;
17566;SDS011;8901;52.088;5.084;2023-06-22T10:22:39;11.77;;;10.57;;
17566;SDS011;8901;52.088;5.084;2023-06-22T10:25:07;13.23;;;10.00;;
17566;SDS011;8901;52.088;5.084;2023-06-22T10:27:34;12.02;;;10.05;;
17566;SDS011;8901;52.088;5.084;2023-06-22T10:30:05;11.98;;;9.43;;
17566;SDS011;8901;52.088;5.084;2023-06-22T10:32:32;10.38;;;9.18;;
17566;SDS011;8901;52.088;5.084;2023-06-22T10:35:00;10.80;;;9.70;;
17566;SDS011;8901;52.088;5.084;2023-06-22T10:37:27;11.30;;;9.27;;
17566;SDS011;8901;52.088;5.084;2023-06-22T10:39:56;9.98;;;8.98;;
17566;SDS011;8901;52.088;5.084;2023-06-22T10:42:23;10.40;;;8.43;;
17566;SDS011;8901;52.088;5.084;2023-06-22T10:44:50;9.63;;;8.70;;
17566;SDS011;8901;52.088;5.084;2023-06-22T10:47:18;8.32;;;7.53;;
17566;SDS011;8901;52.088;5.084;2023-06-22T10:49:45;9.73;;;8.73;;
17566;SDS011;8901;52.088;5.084;2023-06-22T10:52:12;9.63;;;8.57;;
17566;SDS011;8901;52.088;5.084;2023-06-22T10:54:41;9.30;;;8.35;;
17566;SDS011;8901;52.088;5.084;2023-06-22T10:57:09;9.27;;;8.40;;
17566;SDS011;8901;52.088;5.084;2023-06-22T10:59:36;10.52;;;9.48;;
17566;SDS011;8901;52.088;5.084;2023-06-22T11:02:04;10.00;;;8.48;;
17566;SDS011;8901;52.088;5.084;2023-06-22T11:04:31;9.82;;;8.70;;
17566;SDS011;8901;52.088;5.084;2023-06-22T11:06:59;8.48;;;7.68;;
17566;SDS011;8901;52.088;5.084;2023-06-22T11:09:26;9.05;;;8.13;;
17566;SDS011;8901;52.088;5.084;2023-06-22T11:11:53;8.75;;;7.68;;
17566;SDS011;8901;52.088;5.084;2023-06-22T11:14:22;8.63;;;7.22;;
17566;SDS011;8901;52.088;5.084;2023-06-22T11:16:49;8.52;;;7.00;;
17566;SDS011;8901;52.088;5.084;2023-06-22T11:19:17;8.32;;;7.45;;
17566;SDS011;8901;52.088;5.084;2023-06-22T11:21:44;8.52;;;7.22;;
17566;SDS011;8901;52.088;5.084;2023-06-22T11:24:11;8.10;;;7.40;;
17566;SDS011;8901;52.088;5.084;2023-06-22T11:26:38;8.23;;;7.38;;
17566;SDS011;8901;52.088;5.084;2023-06-22T11:29:05;9.93;;;7.80;;
17566;SDS011;8901;52.088;5.084;2023-06-22T11:31:35;8.48;;;7.70;;
17566;SDS011;8901;52.088;5.084;2023-06-22T11:34:03;8.05;;;7.35;;
17566;SDS011;8901;52.088;5.084;2023-06-22T11:36:30;8.35;;;7.55;;
17566;SDS011;8901;52.088;5.084;2023-06-22T11:38:58;9.90;;;7.90;;
17566;SDS011;8901;52.088;5.084;2023-06-22T11:41:25;10.80;;;8.10;;
17566;SDS011;8901;52.088;5.084;2023-06-22T11:43:52;8.88;;;7.97;;
17566;SDS011;8901;52.088;5.084;2023-06-22T11:46:19;9.32;;;8.32;;
17566;SDS011;8901;52.088;5.084;2023-06-22T11:48:48;10.15;;;8.40;;
17566;SDS011;8901;52.088;5.084;2023-06-22T11:51:15;11.70;;;8.90;;
17566;SDS011;8901;52.088;5.084;2023-06-22T11:53:43;10.10;;;8.27;;
17566;SDS011;8901;52.088;5.084;2023-06-22T11:56:10;11.38;;;8.85;;
17566;SDS011;8901;52.088;5.084;2023-06-22T11:58:37;9.68;;;8.52;;
17566;SDS011;8901;52.088;5.084;2023-06-22T12:01:04;10.93;;;8.43;;
17566;SDS011;8901;52.088;5.084;2023-06-22T12:03:31;9.65;;;8.50;;
17566;SDS011;8901;52.088;5.084;2023-06-22T12:06:00;11.35;;;8.85;;
17566;SDS011;8901;52.088;5.084;2023-06-22T12:08:27;9.43;;;8.07;;
17566;SDS011;8901;52.088;5.084;2023-06-22T12:10:54;9.90;;;8.18;;
17566;SDS011;8901;52.088;5.084;2023-06-22T12:13:22;9.23;;;8.32;;
17566;SDS011;8901;52.088;5.084;2023-06-22T12:15:49;10.65;;;7.63;;
17566;SDS011;8901;52.088;5.084;2023-06-22T12:18:17;9.23;;;6.85;;
17566;SDS011;8901;52.088;5.084;2023-06-22T12:20:45;8.52;;;6.95;;
17566;SDS011;8901;52.088;5.084;2023-06-22T12:23:21;10.13;;;8.05;;
17566;SDS011;8901;52.088;5.084;2023-06-22T12:31:20;8.73;;;7.47;;
17566;SDS011;8901;52.088;5.084;2023-06-22T12:33:59;9.48;;;8.38;;
17566;SDS011;8901;52.088;5.084;2023-06-22T12:36:31;10.80;;;8.38;;
17566;SDS011;8901;52.088;5.084;2023-06-22T12:39:13;10.55;;;8.80;;
17566;SDS011;8901;52.088;5.084;2023-06-22T12:44:27;9.98;;;7.82;;
17566;SDS011;8901;52.088;5.084;2023-06-22T12:49:32;10.25;;;8.15;;
17566;SDS011;8901;52.088;5.084;2023-06-22T12:51:59;12.65;;;8.80;;
17566;SDS011;8901;52.088;5.084;2023-06-22T12:54:28;10.93;;;9.20;;
17566;SDS011;8901;52.088;5.084;2023-06-22T12:56:55;10.40;;;9.30;;
17566;SDS011;8901;52.088;5.084;2023-06-22T12:59:23;10.57;;;9.48;;
17566;SDS011;8901;52.088;5.084;2023-06-22T13:01:50;13.35;;;10.20;;
17566;SDS011;8901;52.088;5.084;2023-06-22T13:04:20;10.90;;;9.80;;
17566;SDS011;8901;52.088;5.084;2023-06-22T13:06:48;10.85;;;9.73;;
17566;SDS011;8901;52.088;5.084;2023-06-22T13:09:15;12.75;;;10.60;;
17566;SDS011;8901;52.088;5.084;2023-06-22T13:11:44;12.77;;;10.15;;
17566;SDS011;8901;52.088;5.084;2023-06-22T13:14:11;14.85;;;10.98;;
17566;SDS011;8901;52.088;5.084;2023-06-22T13:16:38;13.05;;;10.82;;
17566;SDS011;8901;52.088;5.084;2023-06-22T13:19:05;12.65;;;11.07;;
17566;SDS011;8901;52.088;5.084;2023-06-22T13:21:33;13.25;;;11.50;;
17566;SDS011;8901;52.088;5.084;2023-06-22T13:24:00;13.68;;;11.82;;
17566;SDS011;8901;52.088;5.084;2023-06-22T13:26:29;13.07;;;11.68;;
17566;SDS011;8901;52.088;5.084;2023-06-22T13:29:00;13.10;;;11.80;;
17566;SDS011;8901;52.088;5.084;2023-06-22T13:31:30;16.25;;;11.80;;
17566;SDS011;8901;52.088;5.084;2023-06-22T13:34:00;14.40;;;12.57;;
17566;SDS011;8901;52.088;5.084;2023-06-22T13:36:30;12.38;;;11.07;;
17566;SDS011;8901;52.088;5.084;2023-06-22T13:38:59;14.40;;;12.20;;
17566;SDS011;8901;52.088;5.084;2023-06-22T13:41:29;13.25;;;11.82;;
17566;SDS011;8901;52.088;5.084;2023-06-22T13:44:06;14.90;;;11.93;;
17566;SDS011;8901;52.088;5.084;2023-06-22T13:46:34;13.82;;;12.10;;
17566;SDS011;8901;52.088;5.084;2023-06-22T13:49:01;13.52;;;12.13;;
17566;SDS011;8901;52.088;5.084;2023-06-22T13:51:28;13.65;;;12.27;;
17566;SDS011;8901;52.088;5.084;2023-06-22T13:53:55;14.27;;;12.90;;
17566;SDS011;8901;52.088;5.084;2023-06-22T13:56:23;13.48;;;12.07;;
17566;SDS011;8901;52.088;5.084;2023-06-22T13:58:50;14.90;;;13.38;;
17566;SDS011;8901;52.088;5.084;2023-06-22T14:01:21;12.75;;;11.40;;
17566;SDS011;8901;52.088;5.084;2023-06-22T14:03:49;12.75;;;11.45;;
17566;SDS011;8901;52.088;5.084;2023-06-22T14:06:16;13.75;;;11.00;;
17566;SDS011;8901;52.088;5.084;2023-06-22T14:08:43;14.23;;;10.98;;
17566;SDS011;8901;52.088;5.084;2023-06-22T14:11:11;11.10;;;9.95;;
17566;SDS011;8901;52.088;5.084;2023-06-22T14:13:38;11.48;;;9.48;;
17566;SDS011;8901;52.088;5.084;2023-06-22T14:16:08;11.20;;;9.73;;
17566;SDS011;8901;52.088;5.084;2023-06-22T14:18:37;10.23;;;9.23;;
17566;SDS011;8901;52.088;5.084;2023-06-22T14:21:07;13.00;;;9.05;;
17566;SDS011;8901;52.088;5.084;2023-06-22T14:23:35;11.35;;;8.98;;
17566;SDS011;8901;52.088;5.084;2023-06-22T14:26:03;11.82;;;8.43;;
17566;SDS011;8901;52.088;5.084;2023-06-22T14:28:30;9.70;;;8.70;;
17566;SDS011;8901;52.088;5.084;2023-06-22T14:30:57;10.68;;;9.25;;
17566;SDS011;8901;52.088;5.084;2023-06-22T14:33:25;11.63;;;9.25;;
17566;SDS011;8901;52.088;5.084;2023-06-22T14:35:57;10.05;;;8.43;;
17566;SDS011;8901;52.088;5.084;2023-06-22T14:38:24;9.60;;;8.55;;
17566;SDS011;8901;52.088;5.084;2023-06-22T14:40:52;11.43;;;8.93;;
17566;SDS011;8901;52.088;5.084;2023-06-22T14:43:20;9.97;;;8.97;;
17566;SDS011;8901;52.088;5.084;2023-06-22T14:45:47;9.33;;;8.33;;
17566;SDS011;8901;52.088;5.084;2023-06-22T14:48:16;9.95;;;8.35;;
17566;SDS011;8901;52.088;5.084;2023-06-22T14:50:43;10.40;;;9.30;;
17566;SDS011;8901;52.088;5.084;2023-06-22T14:53:12;10.68;;;9.57;;
17566;SDS011;8901;52.088;5.084;2023-06-22T14:55:39;13.05;;;9.52;;
17566;SDS011;8901;52.088;5.084;2023-06-22T14:58:06;11.97;;;9.77;;
17566;SDS011;8901;52.088;5.084;2023-06-22T15:00:35;11.93;;;10.27;;